createdAt,value
2017-08-08T00:02:59.703Z,14.77
2017-08-08T00:08:27.875Z,10.10
2017-08-08T00:13:57.027Z,11.80
2017-08-08T00:19:25.964Z,8.80
2017-08-08T00:24:54.154Z,18.60
2017-08-08T00:30:23.099Z,9.50
2017-08-08T00:35:51.293Z,13.47
2017-08-08T00:41:19.590Z,10.57
2017-08-08T00:46:47.928Z,12.70
2017-08-08T00:52:16.116Z,15.20
2017-08-08T00:57:44.267Z,9.80
2017-08-08T01:03:12.436Z,13.03
2017-08-08T01:08:42.590Z,12.90
2017-08-08T01:14:11.532Z,11.37
2017-08-08T01:19:39.688Z,13.93
2017-08-08T01:25:07.854Z,13.13
2017-08-08T01:30:36.209Z,11.00
2017-08-08T01:36:04.448Z,14.77
2017-08-08T01:41:32.632Z,9.80
2017-08-08T01:47:00.807Z,12.77
2017-08-08T01:52:29.114Z,10.03
2017-08-08T01:57:57.278Z,14.13
2017-08-08T02:03:25.449Z,11.50
2017-08-08T02:08:53.595Z,9.90
2017-08-08T02:14:21.784Z,13.90
2017-08-08T02:19:49.933Z,10.93
2017-08-08T02:25:18.097Z,14.43
2017-08-08T02:30:46.295Z,11.03
2017-08-08T02:36:15.233Z,14.70
2017-08-08T02:41:44.332Z,16.03
2017-08-08T02:47:12.492Z,12.23
2017-08-08T02:52:40.656Z,14.13
2017-08-08T02:58:09.841Z,12.90
2017-08-08T03:03:38.016Z,17.03
2017-08-08T03:09:06.940Z,14.77
2017-08-08T03:14:35.099Z,11.63
2017-08-08T03:20:03.398Z,12.53
2017-08-08T03:25:32.578Z,13.97
2017-08-08T03:31:01.217Z,12.10
2017-08-08T03:36:30.331Z,12.57
2017-08-08T03:41:58.562Z,10.87
2017-08-08T03:47:26.713Z,12.70
2017-08-08T03:52:54.881Z,11.67
2017-08-08T03:58:23.173Z,11.17
2017-08-08T04:03:51.374Z,15.33
2017-08-08T04:09:19.568Z,11.33
2017-08-08T04:14:48.508Z,13.30
2017-08-08T04:20:16.685Z,12.50
2017-08-08T04:25:44.837Z,16.37
2017-08-08T04:31:13.369Z,20.80
2017-08-08T04:36:48.403Z,12.43
2017-08-08T04:42:16.584Z,13.93
2017-08-08T04:47:44.759Z,12.83
2017-08-08T04:53:12.943Z,13.90
2017-08-08T04:58:41.115Z,13.37
2017-08-08T05:04:09.657Z,11.33
2017-08-08T05:09:37.830Z,11.00
2017-08-08T05:15:06.001Z,13.90
2017-08-08T05:20:34.148Z,10.43
2017-08-08T05:26:02.337Z,10.50
2017-08-08T05:31:30.532Z,10.50
2017-08-08T05:36:59.456Z,12.97
2017-08-08T05:42:27.607Z,10.93
2017-08-08T05:47:55.801Z,10.90
2017-08-08T05:53:23.950Z,9.83
2017-08-08T05:58:52.105Z,10.93
2017-08-08T06:04:20.252Z,11.47
2017-08-08T06:09:48.445Z,10.10
2017-08-08T06:15:16.613Z,7.70
2017-08-08T06:20:45.527Z,7.53
2017-08-08T06:26:13.717Z,10.50
2017-08-08T06:31:41.891Z,12.47
2017-08-08T06:37:10.037Z,14.33
2017-08-08T06:42:38.195Z,7.23
2017-08-08T06:48:06.359Z,7.20
2017-08-08T06:53:34.513Z,5.50
2017-08-08T06:59:02.684Z,7.63
2017-08-08T07:04:30.854Z,5.10
2017-08-08T07:09:59.784Z,4.73
2017-08-08T07:15:27.958Z,4.13
2017-08-08T07:20:56.117Z,4.30
2017-08-08T07:26:24.274Z,3.57
2017-08-08T07:31:52.450Z,5.73
2017-08-08T07:37:20.587Z,5.40
2017-08-08T07:42:49.671Z,3.60
2017-08-08T07:48:17.832Z,7.70
2017-08-08T07:53:45.988Z,5.87
2017-08-08T07:59:14.159Z,3.70
2017-08-08T08:04:42.298Z,3.50
2017-08-08T08:10:10.449Z,7.23
2017-08-08T08:15:38.591Z,3.97
2017-08-08T08:21:06.756Z,4.83
2017-08-08T08:26:35.020Z,5.40
2017-08-08T08:32:03.168Z,4.77
2017-08-08T08:37:31.332Z,3.73
2017-08-08T08:42:59.478Z,4.47
2017-08-08T08:48:27.633Z,3.03
2017-08-08T08:53:57.406Z,4.20
2017-08-08T08:59:26.347Z,3.10
2017-08-08T09:04:54.576Z,2.47
2017-08-08T09:10:23.520Z,3.97
2017-08-08T09:15:51.703Z,5.63
2017-08-08T09:21:19.855Z,4.13
2017-08-08T09:26:48.028Z,2.50
2017-08-08T09:32:16.247Z,3.70
2017-08-08T09:37:45.485Z,3.07
2017-08-08T09:43:14.590Z,3.37
2017-08-08T09:48:42.752Z,3.70
2017-08-08T09:54:10.899Z,3.70
2017-08-08T09:59:39.832Z,4.73
2017-08-08T10:05:07.971Z,4.93
2017-08-08T10:10:36.270Z,4.43
2017-08-08T10:16:04.574Z,5.10
2017-08-08T10:21:33.799Z,3.53
2017-08-08T10:27:02.033Z,3.20
2017-08-08T10:32:30.205Z,4.67
2017-08-08T10:37:58.498Z,5.30
2017-08-08T10:43:26.694Z,3.77
2017-08-08T10:48:54.856Z,7.50
2017-08-08T10:54:23.781Z,3.83
2017-08-08T10:59:51.918Z,2.93
2017-08-08T11:05:20.217Z,3.33
2017-08-08T11:10:48.424Z,4.40
2017-08-08T11:16:18.340Z,3.17
2017-08-08T11:21:46.490Z,6.90
2017-08-08T11:27:14.640Z,2.80
2017-08-08T11:32:42.800Z,3.20
2017-08-08T11:38:10.957Z,6.60
2017-08-08T11:43:41.912Z,3.63
2017-08-08T11:49:11.134Z,6.60
2017-08-08T11:54:39.519Z,3.70
2017-08-08T12:00:08.260Z,5.40
2017-08-08T12:05:37.228Z,4.07
2017-08-08T12:11:06.344Z,5.40
2017-08-08T12:16:34.602Z,3.50
2017-08-08T12:22:03.545Z,5.30
2017-08-08T12:27:31.827Z,4.40
2017-08-08T12:33:01.194Z,4.50
2017-08-08T12:38:32.547Z,5.00
2017-08-08T12:44:00.865Z,6.13
2017-08-08T12:49:29.529Z,7.00
2017-08-08T12:54:57.942Z,9.93
2017-08-08T13:00:26.754Z,7.33
2017-08-08T13:05:55.848Z,6.33
2017-08-08T13:11:24.028Z,8.20
2017-08-08T13:16:52.202Z,10.17
2017-08-08T13:22:20.419Z,8.30
2017-08-08T13:27:49.296Z,7.47
2017-08-08T13:33:18.059Z,7.67
2017-08-08T13:38:46.231Z,6.30
2017-08-08T13:44:14.376Z,5.80
2017-08-08T13:49:43.918Z,7.03
2017-08-08T13:55:12.864Z,8.20
2017-08-08T14:00:41.010Z,6.63
2017-08-08T14:06:09.168Z,7.80
2017-08-08T14:11:37.302Z,6.77
2017-08-08T14:17:05.466Z,7.53
2017-08-08T14:22:33.654Z,6.30
2017-08-08T14:28:01.838Z,5.67
2017-08-08T14:33:30.759Z,8.80
2017-08-08T14:38:58.913Z,6.87
2017-08-08T14:44:27.100Z,7.40
2017-08-08T14:49:55.254Z,9.90
2017-08-08T14:55:23.424Z,7.17
2017-08-08T15:00:51.580Z,7.90
2017-08-08T15:06:20.699Z,5.97
2017-08-08T15:11:48.886Z,10.17
2017-08-08T15:17:17.044Z,7.70
2017-08-08T15:22:45.208Z,12.13
2017-08-08T15:28:13.364Z,10.67
2017-08-08T15:33:41.516Z,5.60
2017-08-08T15:39:09.668Z,5.17
2017-08-08T15:44:37.843Z,7.10
2017-08-08T15:50:06.047Z,8.27
2017-08-08T15:55:34.238Z,3.10
2017-08-08T16:01:02.396Z,4.50
2017-08-08T16:06:30.591Z,3.13
2017-08-08T16:11:58.737Z,6.70
2017-08-08T16:17:26.905Z,3.10
2017-08-08T16:22:55.086Z,4.57
2017-08-08T16:28:23.229Z,2.07
2017-08-08T16:33:51.387Z,6.77
2017-08-08T16:39:19.564Z,7.77
2017-08-08T16:44:48.529Z,5.60
2017-08-08T16:50:17.509Z,3.37
2017-08-08T16:55:46.179Z,4.03
2017-08-08T17:01:15.108Z,2.97
2017-08-08T17:06:46.479Z,3.97
2017-08-08T17:12:14.637Z,3.37
2017-08-08T17:17:42.800Z,3.07
2017-08-08T17:23:12.725Z,4.73
2017-08-08T17:28:40.878Z,3.00
2017-08-08T17:34:09.036Z,3.47
2017-08-08T17:39:38.330Z,7.00
2017-08-08T17:45:06.477Z,4.20
2017-08-08T17:50:35.583Z,6.63
2017-08-08T17:56:05.369Z,5.57
2017-08-08T18:01:33.525Z,5.80
2017-08-08T18:07:02.513Z,5.83
2017-08-08T18:12:30.681Z,6.30
2017-08-08T18:17:58.890Z,5.00
2017-08-08T18:23:27.817Z,4.97
2017-08-08T18:28:55.989Z,5.40
2017-08-08T18:34:24.157Z,4.40
2017-08-08T18:39:52.345Z,5.67
2017-08-08T18:45:21.543Z,5.17
2017-08-08T18:50:49.781Z,6.17
2017-08-08T18:56:17.948Z,3.33
2017-08-08T19:01:46.128Z,4.10
2017-08-08T19:07:14.273Z,5.10
2017-08-08T19:12:42.441Z,2.93
2017-08-08T19:18:10.587Z,4.93
2017-08-08T19:23:38.753Z,3.30
2017-08-08T19:29:06.911Z,2.00
2017-08-08T19:34:35.065Z,4.83
2017-08-08T19:40:03.221Z,7.80
2017-08-08T19:45:31.374Z,8.40
2017-08-08T19:50:59.525Z,6.57
2017-08-08T19:56:28.452Z,5.13
2017-08-08T20:01:56.616Z,3.50
2017-08-08T20:07:24.764Z,3.53
2017-08-08T20:12:52.941Z,3.50
2017-08-08T20:18:22.725Z,3.23
2017-08-08T20:23:51.215Z,7.53
2017-08-08T20:29:19.540Z,5.47
2017-08-08T20:34:47.778Z,4.97
2017-08-08T20:40:15.932Z,4.60
2017-08-08T20:45:44.089Z,3.80
2017-08-08T20:51:12.231Z,2.60
2017-08-08T20:56:41.192Z,3.10
2017-08-08T21:02:10.114Z,1.50
2017-08-08T21:07:38.323Z,2.67
2017-08-08T21:13:06.562Z,1.30
2017-08-08T21:18:34.712Z,1.80
2017-08-08T21:24:02.941Z,2.43
2017-08-08T21:29:31.076Z,7.40
2017-08-08T21:34:59.211Z,2.90
2017-08-08T21:40:27.352Z,2.37
2017-08-08T21:45:55.502Z,2.70
2017-08-08T21:51:23.655Z,2.03
2017-08-08T21:56:51.820Z,9.97
2017-08-08T22:02:19.987Z,2.03
2017-08-08T22:07:48.161Z,11.93
2017-08-08T22:13:17.074Z,3.33
2017-08-08T22:18:45.258Z,1.97
2017-08-08T22:24:13.773Z,1.67
2017-08-08T22:29:42.671Z,5.60
2017-08-08T22:35:10.822Z,1.70
2017-08-08T22:40:38.985Z,3.13
2017-08-08T22:46:07.149Z,1.93
2017-08-08T22:51:35.409Z,5.67
2017-08-08T22:57:03.542Z,3.10
2017-08-08T23:02:31.689Z,1.73
2017-08-08T23:07:59.833Z,2.90
2017-08-08T23:13:28.070Z,5.03
2017-08-08T23:18:56.225Z,1.57
2017-08-08T23:24:24.422Z,2.23
2017-08-08T23:29:53.352Z,2.70
2017-08-08T23:35:21.486Z,4.30
2017-08-08T23:40:49.635Z,2.20
2017-08-08T23:46:17.788Z,1.83
2017-08-08T23:51:45.946Z,1.60
2017-08-08T23:57:14.083Z,1.97
